createdAt,value
2019-01-11T00:01:54.208Z,1.21
2019-01-11T00:04:21.718Z,1.19
2019-01-11T00:06:49.374Z,1.19
2019-01-11T00:09:18.788Z,1.29
2019-01-11T00:11:47.095Z,1.28
2019-01-11T00:14:15.000Z,1.27
2019-01-11T00:16:42.743Z,1.30
2019-01-11T00:19:10.532Z,1.25
2019-01-11T00:21:38.423Z,1.23
2019-01-11T00:24:06.689Z,1.28
2019-01-11T00:26:34.482Z,1.23
2019-01-11T00:29:02.584Z,1.26
2019-01-11T00:31:30.359Z,1.25
2019-01-11T00:33:57.844Z,1.26
2019-01-11T00:36:25.257Z,1.26
2019-01-11T00:38:52.757Z,1.30
2019-01-11T00:41:20.167Z,1.29
2019-01-11T00:43:47.645Z,1.21
2019-01-11T00:46:20.437Z,1.22
2019-01-11T00:48:50.014Z,1.30
2019-01-11T00:51:17.417Z,1.29
2019-01-11T00:54:10.370Z,1.23
2019-01-11T00:56:49.566Z,1.23
2019-01-11T00:59:49.997Z,1.27
2019-01-11T01:02:21.177Z,1.18
2019-01-11T01:04:48.934Z,1.14
2019-01-11T01:07:16.547Z,1.13
2019-01-11T01:09:44.352Z,1.09
2019-01-11T01:12:12.436Z,1.18
2019-01-11T01:14:47.022Z,1.21
2019-01-11T01:17:16.247Z,1.22
2019-01-11T01:19:48.599Z,1.13
2019-01-11T01:22:19.836Z,1.17
2019-01-11T01:24:47.427Z,1.27
2019-01-11T01:27:15.078Z,1.28
2019-01-11T01:29:42.577Z,1.26
2019-01-11T01:32:10.163Z,1.25
2019-01-11T01:35:26.726Z,1.26
2019-01-11T01:37:09.198Z,1.26
2019-01-11T01:40:12.621Z,1.29
2019-01-11T01:42:52.576Z,1.25
2019-01-11T01:45:33.526Z,1.24
2019-01-11T01:48:00.935Z,1.20
2019-01-11T01:50:28.457Z,1.25
2019-01-11T01:53:03.171Z,1.24
2019-01-11T01:55:52.827Z,1.27
2019-01-11T01:58:23.990Z,1.33
2019-01-11T02:00:51.580Z,1.25
2019-01-11T02:03:19.028Z,1.24
2019-01-11T02:05:49.393Z,1.19
2019-01-11T02:08:16.812Z,1.19
2019-01-11T02:10:44.383Z,1.21
2019-01-11T02:13:11.898Z,1.19
2019-01-11T02:15:39.478Z,1.18
2019-01-11T02:18:07.017Z,1.12
2019-01-11T02:20:34.543Z,1.15
2019-01-11T02:23:01.934Z,1.12
2019-01-11T02:25:29.523Z,1.10
2019-01-11T02:27:58.887Z,1.18
2019-01-11T02:30:26.384Z,1.17
2019-01-11T02:32:53.820Z,1.20
2019-01-11T02:35:21.401Z,1.15
2019-01-11T02:37:49.119Z,1.22
2019-01-11T02:40:16.786Z,1.26
2019-01-11T02:42:44.197Z,1.24
2019-01-11T02:45:13.823Z,1.18
2019-01-11T02:47:41.421Z,1.20
2019-01-11T02:50:09.789Z,1.18
2019-01-11T02:52:39.147Z,1.17
2019-01-11T02:55:07.401Z,1.19
2019-01-11T02:57:34.868Z,1.15
2019-01-11T03:00:02.788Z,1.15
2019-01-11T03:02:30.191Z,1.18
2019-01-11T03:04:57.666Z,1.18
2019-01-11T03:07:25.226Z,1.11
2019-01-11T03:09:52.786Z,1.17
2019-01-11T03:12:20.208Z,1.21
2019-01-11T03:14:47.644Z,1.18
2019-01-11T03:17:15.122Z,1.21
2019-01-11T03:19:47.802Z,1.18
2019-01-11T03:22:11.947Z,1.18
2019-01-11T03:24:39.326Z,1.19
2019-01-11T03:27:08.240Z,1.19
2019-01-11T03:29:35.711Z,1.24
2019-01-11T03:32:03.705Z,1.22
2019-01-11T03:34:33.022Z,1.29
2019-01-11T03:37:00.521Z,1.18
2019-01-11T03:39:27.929Z,1.22
2019-01-11T03:42:23.988Z,1.20
2019-01-11T03:44:51.740Z,1.29
2019-01-11T03:47:19.476Z,1.20
2019-01-11T03:49:46.936Z,1.23
2019-01-11T03:52:14.411Z,1.22
2019-01-11T03:54:41.840Z,1.23
2019-01-11T03:57:09.347Z,1.26
2019-01-11T03:59:37.051Z,1.28
2019-01-11T04:02:04.513Z,1.23
2019-01-11T04:04:35.881Z,1.22
2019-01-11T04:07:03.486Z,1.27
2019-01-11T04:09:30.898Z,1.33
2019-01-11T04:11:58.432Z,1.39
2019-01-11T04:14:25.886Z,1.42
2019-01-11T04:16:53.400Z,1.38
2019-01-11T04:19:20.815Z,1.36
2019-01-11T04:22:06.393Z,1.41
2019-01-11T04:24:44.236Z,1.40
2019-01-11T04:27:12.111Z,1.36
2019-01-11T04:29:39.532Z,1.42
2019-01-11T04:32:10.711Z,1.42
2019-01-11T04:34:38.141Z,1.44
2019-01-11T04:37:05.575Z,1.42
2019-01-11T04:39:33.052Z,1.38
2019-01-11T04:42:00.509Z,1.42
2019-01-11T04:44:27.896Z,1.42
2019-01-11T04:46:56.486Z,1.43
2019-01-11T04:49:24.081Z,1.42
2019-01-11T04:51:51.567Z,1.47
2019-01-11T04:54:18.969Z,1.49
2019-01-11T04:56:46.829Z,1.46
2019-01-11T04:59:15.366Z,1.47
2019-01-11T05:01:42.836Z,1.41
2019-01-11T05:04:10.531Z,1.45
2019-01-11T05:06:38.042Z,1.60
2019-01-11T05:09:06.521Z,1.68
2019-01-11T05:11:34.261Z,1.73
2019-01-11T05:14:01.736Z,1.70
2019-01-11T05:16:39.313Z,1.72
2019-01-11T05:19:02.163Z,1.66
2019-01-11T05:21:29.616Z,1.71
2019-01-11T05:23:57.961Z,1.72
2019-01-11T05:26:25.622Z,1.67
2019-01-11T05:28:53.193Z,1.69
2019-01-11T05:31:20.576Z,1.68
2019-01-11T05:33:48.007Z,1.67
2019-01-11T05:36:15.439Z,1.66
2019-01-11T05:38:43.662Z,1.72
2019-01-11T05:41:13.123Z,1.76
2019-01-11T05:43:42.683Z,1.69
2019-01-11T05:46:10.098Z,1.67
2019-01-11T05:48:37.577Z,1.69
2019-01-11T05:51:09.031Z,1.63
2019-01-11T05:53:36.466Z,1.67
2019-01-11T05:56:15.437Z,1.65
2019-01-11T05:58:58.391Z,1.65
2019-01-11T06:01:28.542Z,1.65
2019-01-11T06:03:59.009Z,1.63
2019-01-11T06:06:50.680Z,1.71
2019-01-11T06:09:20.406Z,1.71
2019-01-11T06:11:47.832Z,1.78
2019-01-11T06:14:15.306Z,1.83
2019-01-11T06:16:43.027Z,1.77
2019-01-11T06:19:10.571Z,1.83
2019-01-11T06:21:38.181Z,1.81
2019-01-11T06:24:05.981Z,1.83
2019-01-11T06:26:33.446Z,1.82
2019-01-11T06:29:01.513Z,1.88
2019-01-11T06:31:28.911Z,1.84
2019-01-11T06:34:01.061Z,1.87
2019-01-11T06:36:29.122Z,1.96
2019-01-11T06:38:56.735Z,1.90
2019-01-11T06:41:32.031Z,2.02
2019-01-11T06:44:07.046Z,1.99
2019-01-11T06:46:35.312Z,2.02
2019-01-11T06:49:04.338Z,1.87
2019-01-11T06:51:31.966Z,1.86
2019-01-11T06:54:01.031Z,1.93
2019-01-11T06:56:28.701Z,1.90
2019-01-11T06:58:56.106Z,1.92
2019-01-11T07:01:24.191Z,2.02
2019-01-11T07:03:51.646Z,2.00
2019-01-11T07:06:19.141Z,1.99
2019-01-11T07:08:46.652Z,2.00
2019-01-11T07:11:15.996Z,2.04
2019-01-11T07:13:43.397Z,2.02
2019-01-11T07:16:10.893Z,2.08
2019-01-11T07:18:38.297Z,2.06
2019-01-11T07:21:05.745Z,1.99
2019-01-11T07:23:34.345Z,2.06
2019-01-11T07:26:01.941Z,2.04
2019-01-11T07:28:30.648Z,2.09
2019-01-11T07:31:08.411Z,2.10
2019-01-11T07:33:35.993Z,2.13
2019-01-11T07:36:22.956Z,2.14
2019-01-11T07:38:50.617Z,2.12
2019-01-11T07:41:18.071Z,2.15
2019-01-11T07:43:45.490Z,2.18
2019-01-11T07:46:12.921Z,2.14
2019-01-11T07:48:40.322Z,2.17
2019-01-11T07:51:07.764Z,2.17
2019-01-11T07:53:35.146Z,2.24
2019-01-11T07:56:02.696Z,2.20
2019-01-11T07:58:30.167Z,2.11
2019-01-11T08:00:57.656Z,2.24
2019-01-11T08:03:25.042Z,2.24
2019-01-11T08:05:52.516Z,2.29
2019-01-11T08:08:20.304Z,2.28
2019-01-11T08:10:47.746Z,2.39
2019-01-11T08:13:15.146Z,2.40
2019-01-11T08:15:42.652Z,2.34
2019-01-11T08:18:10.180Z,2.41
2019-01-11T08:20:37.907Z,2.37
2019-01-11T08:23:05.388Z,2.39
2019-01-11T08:25:32.912Z,2.40
2019-01-11T08:28:00.397Z,2.36
2019-01-11T08:30:27.832Z,2.40
2019-01-11T08:32:55.287Z,2.44
2019-01-11T08:35:22.686Z,2.48
2019-01-11T08:37:50.247Z,2.50
2019-01-11T08:40:17.791Z,2.45
2019-01-11T08:42:45.331Z,2.48
2019-01-11T08:45:12.952Z,2.51
2019-01-11T08:47:40.492Z,2.56
2019-01-11T08:50:12.626Z,2.63
2019-01-11T08:52:40.073Z,2.65
2019-01-11T08:55:07.701Z,2.76
2019-01-11T08:57:35.252Z,2.74
2019-01-11T09:00:03.445Z,2.79
2019-01-11T09:02:30.907Z,2.77
2019-01-11T09:04:58.406Z,2.73
2019-01-11T09:07:25.881Z,2.71
2019-01-11T09:09:53.274Z,2.60
2019-01-11T09:12:20.947Z,2.68
2019-01-11T09:14:51.127Z,2.65
2019-01-11T09:17:19.611Z,2.65
2019-01-11T09:19:48.867Z,2.65
2019-01-11T09:22:17.407Z,2.68
2019-01-11T09:24:44.947Z,2.60
2019-01-11T09:27:15.467Z,2.67
2019-01-11T09:29:45.688Z,2.71
2019-01-11T09:32:13.309Z,2.71
2019-01-11T09:34:40.967Z,2.75
2019-01-11T09:37:09.460Z,2.87
2019-01-11T09:39:37.168Z,2.92
2019-01-11T09:42:04.827Z,3.08
2019-01-11T09:44:32.796Z,3.17
2019-01-11T09:47:00.367Z,3.16
2019-01-11T09:49:28.009Z,3.22
2019-01-11T09:51:58.909Z,3.23
2019-01-11T09:54:26.730Z,3.28
2019-01-11T09:57:00.387Z,3.24
2019-01-11T09:59:35.190Z,3.32
2019-01-11T10:02:21.915Z,3.19
2019-01-11T10:04:49.807Z,3.27
2019-01-11T10:07:40.488Z,3.32
2019-01-11T10:10:11.589Z,3.43
2019-01-11T10:12:40.026Z,3.55
2019-01-11T10:15:11.108Z,3.59
2019-01-11T10:17:39.092Z,3.67
2019-01-11T10:20:09.966Z,3.79
2019-01-11T10:22:40.248Z,3.82
2019-01-11T10:25:11.366Z,3.86
2019-01-11T10:27:39.467Z,4.07
2019-01-11T10:30:10.747Z,4.09
2019-01-11T10:32:38.427Z,4.08
2019-01-11T10:35:06.588Z,4.02
2019-01-11T10:37:34.149Z,3.91
2019-01-11T10:40:01.810Z,3.91
2019-01-11T10:42:29.482Z,3.92
2019-01-11T10:44:57.468Z,3.94
2019-01-11T10:47:25.247Z,4.00
2019-01-11T10:49:53.007Z,4.02
2019-01-11T10:52:20.868Z,4.04
2019-01-11T10:54:48.766Z,4.13
2019-01-11T10:57:16.567Z,4.23
2019-01-11T10:59:44.307Z,4.17
2019-01-11T11:02:11.808Z,4.25
2019-01-11T11:04:40.106Z,4.17
2019-01-11T11:07:07.989Z,4.23
2019-01-11T11:09:35.967Z,4.18
2019-01-11T11:12:03.747Z,4.15
2019-01-11T11:14:31.502Z,4.22
2019-01-11T11:16:59.288Z,4.14
2019-01-11T11:19:27.688Z,4.23
2019-01-11T11:21:55.468Z,4.22
2019-01-11T11:24:23.587Z,4.22
2019-01-11T11:26:51.225Z,4.37
2019-01-11T11:29:19.207Z,4.40
2019-01-11T11:31:47.227Z,4.42
2019-01-11T11:34:23.509Z,4.43
2019-01-11T11:36:51.508Z,4.52
2019-01-11T11:39:19.508Z,4.54
2019-01-11T11:41:47.128Z,4.50
2019-01-11T11:44:14.667Z,4.51
2019-01-11T11:46:42.539Z,4.45
2019-01-11T11:49:10.446Z,4.48
2019-01-11T11:51:43.157Z,4.53
2019-01-11T11:54:11.578Z,4.66
2019-01-11T11:57:20.657Z,4.63
2019-01-11T11:59:48.600Z,4.62
2019-01-11T12:03:30.122Z,4.63
2019-01-11T12:06:06.937Z,4.63
2019-01-11T12:08:54.618Z,4.71
2019-01-11T12:11:32.006Z,4.92
2019-01-11T12:13:59.699Z,4.95
2019-01-11T12:16:28.098Z,4.99
2019-01-11T12:18:55.638Z,4.93
2019-01-11T12:21:23.292Z,4.93
2019-01-11T12:23:51.321Z,4.96
2019-01-11T12:26:19.340Z,5.01
2019-01-11T12:28:49.260Z,5.05
2019-01-11T12:31:17.238Z,5.10
2019-01-11T12:33:45.233Z,5.19
2019-01-11T12:36:16.296Z,5.17
2019-01-11T12:38:47.009Z,5.18
2019-01-11T12:41:14.731Z,5.21
2019-01-11T12:43:42.511Z,5.21
2019-01-11T12:46:10.571Z,5.28
2019-01-11T12:48:39.292Z,5.20
2019-01-11T12:51:07.171Z,5.24
2019-01-11T12:53:51.510Z,5.28
2019-01-11T12:56:19.431Z,5.30
2019-01-11T12:58:53.310Z,5.37
2019-01-11T13:01:22.431Z,5.45
2019-01-11T13:03:56.452Z,5.44
2019-01-11T13:06:30.683Z,5.57
2019-01-11T13:09:05.410Z,5.65
2019-01-11T13:11:42.949Z,5.66
2019-01-11T13:14:13.520Z,5.71
2019-01-11T13:17:12.230Z,5.68
2019-01-11T13:20:12.431Z,5.70
2019-01-11T13:22:40.815Z,5.70
2019-01-11T13:25:22.158Z,5.66
2019-01-11T13:27:50.170Z,5.65
2019-01-11T13:30:22.404Z,5.68
2019-01-11T13:32:50.994Z,5.82
2019-01-11T13:35:19.531Z,5.83
2019-01-11T13:37:52.751Z,5.84
2019-01-11T13:40:26.192Z,5.88
2019-01-11T13:42:56.970Z,5.93
2019-01-11T13:45:25.106Z,5.87
2019-01-11T13:47:57.392Z,5.92
2019-01-11T13:50:43.311Z,5.89
2019-01-11T13:53:39.709Z,5.91
2019-01-11T13:56:18.511Z,5.92
2019-01-11T13:58:51.386Z,5.88
2019-01-11T14:01:38.835Z,5.99
2019-01-11T14:04:20.472Z,5.96
2019-01-11T14:06:58.472Z,6.03
2019-01-11T14:09:28.991Z,6.03
2019-01-11T14:11:57.006Z,6.03
2019-01-11T14:14:27.973Z,6.10
2019-01-11T14:16:59.852Z,6.13
2019-01-11T14:19:29.769Z,6.11
2019-01-11T14:23:05.114Z,6.17
2019-01-11T14:25:36.410Z,6.20
2019-01-11T14:28:37.533Z,6.20
2019-01-11T14:31:06.165Z,6.23
2019-01-11T14:33:34.673Z,6.21
2019-01-11T14:36:06.750Z,6.22
2019-01-11T14:38:41.393Z,6.25
2019-01-11T14:41:25.544Z,6.29
2019-01-11T14:43:57.611Z,6.29
2019-01-11T14:46:26.852Z,6.29
2019-01-11T14:48:54.910Z,6.28
2019-01-11T14:51:25.692Z,6.29
2019-01-11T14:53:54.811Z,6.29
2019-01-11T14:56:27.672Z,6.32
2019-01-11T14:59:34.012Z,6.39
2019-01-11T15:02:01.805Z,6.40
2019-01-11T15:05:13.330Z,6.45
2019-01-11T15:07:14.511Z,6.51
2019-01-11T15:10:57.530Z,6.48
2019-01-11T15:13:27.151Z,6.50
2019-01-11T15:15:55.973Z,6.50
2019-01-11T15:18:32.593Z,6.55
2019-01-11T15:21:03.810Z,6.56
2019-01-11T15:23:39.151Z,6.55
2019-01-11T15:26:11.062Z,6.55
2019-01-11T15:28:45.291Z,6.51
2019-01-11T15:31:29.610Z,6.48
2019-01-11T15:37:50.290Z,6.48
2019-01-11T15:40:55.866Z,6.50
2019-01-11T15:43:26.170Z,6.46
2019-01-11T15:46:01.872Z,6.49
2019-01-11T15:48:47.011Z,6.52
2019-01-11T15:51:16.754Z,6.53
2019-01-11T15:53:44.754Z,6.58
2019-01-11T15:56:15.352Z,6.58
2019-01-11T15:58:45.872Z,6.59
2019-01-11T16:01:28.430Z,6.65
2019-01-11T16:04:09.106Z,6.64
2019-01-11T16:06:44.745Z,6.65
2019-01-11T16:09:56.924Z,6.66
2019-01-11T16:13:34.892Z,6.65
2019-01-11T16:16:50.472Z,6.60
2019-01-11T16:19:36.466Z,6.55
2019-01-11T16:22:13.110Z,6.53
2019-01-11T16:25:01.131Z,6.49
2019-01-11T16:27:25.370Z,6.44
2019-01-11T16:30:06.293Z,6.46
2019-01-11T16:32:47.961Z,6.43
2019-01-11T16:35:41.325Z,6.45
2019-01-11T16:39:04.612Z,6.45
2019-01-11T16:45:15.212Z,6.49
2019-01-11T16:47:43.661Z,6.51
2019-01-11T16:50:14.091Z,6.46
2019-01-11T16:52:46.257Z,6.45
2019-01-11T16:58:16.310Z,6.45
2019-01-11T16:58:55.950Z,6.44
2019-01-11T17:00:53.534Z,6.36
2019-01-11T17:03:43.810Z,6.38
2019-01-11T17:06:14.590Z,6.29
2019-01-11T17:08:42.295Z,6.28
2019-01-11T17:18:52.191Z,6.31
2019-01-11T17:21:42.511Z,6.28
2019-01-11T17:36:08.090Z,6.27
2019-01-11T17:53:44.250Z,6.38
2019-01-11T18:15:46.471Z,6.22
2019-01-11T18:19:18.651Z,6.25
2019-01-11T18:21:56.172Z,6.29
2019-01-11T18:24:45.093Z,6.30
2019-01-11T18:27:23.572Z,6.28
2019-01-11T18:30:17.774Z,6.28
2019-01-11T18:33:33.111Z,6.29
2019-01-11T18:36:22.570Z,6.25
2019-01-11T18:38:51.071Z,6.28
2019-01-11T18:41:18.951Z,6.23
2019-01-11T18:43:59.831Z,6.29
2019-01-11T18:46:38.385Z,6.29
2019-01-11T18:49:14.570Z,6.31
2019-01-11T18:52:05.101Z,6.31
2019-01-11T18:54:33.150Z,6.31
2019-01-11T18:58:11.539Z,6.31
2019-01-11T19:08:23.880Z,6.29
2019-01-11T19:10:51.870Z,6.29
2019-01-11T19:13:20.016Z,6.34
2019-01-11T19:15:51.386Z,6.36
2019-01-11T19:18:41.151Z,6.37
2019-01-11T19:21:11.366Z,6.39
2019-01-11T19:23:39.427Z,6.39
2019-01-11T19:26:13.759Z,6.36
2019-01-11T19:28:44.906Z,6.34
2019-01-11T19:31:13.046Z,6.38
2019-01-11T19:34:03.495Z,6.35
2019-01-11T19:36:31.691Z,6.36
2019-01-11T19:38:59.701Z,6.35
2019-01-11T19:45:01.282Z,6.37
2019-01-11T20:07:11.308Z,6.34
2019-01-11T20:09:11.085Z,6.34
2019-01-11T20:12:01.860Z,6.32
2019-01-11T20:15:52.713Z,6.28
2019-01-11T20:22:42.053Z,6.30
2019-01-11T20:25:13.310Z,6.30
2019-01-11T20:28:00.885Z,6.31
2019-01-11T20:34:42.231Z,6.31
2019-01-11T20:37:45.378Z,6.32
2019-01-11T20:47:24.633Z,6.30
2019-01-11T20:50:29.227Z,6.32
2019-01-11T20:54:03.483Z,6.31
2019-01-11T20:56:31.807Z,6.29
2019-01-11T20:58:59.574Z,6.27
2019-01-11T21:01:27.217Z,6.29
2019-01-11T21:03:55.333Z,6.28
2019-01-11T21:06:23.287Z,6.31
2019-01-11T21:08:51.187Z,6.30
2019-01-11T21:11:19.047Z,6.30
2019-01-11T21:21:26.768Z,6.29
2019-01-11T21:42:51.578Z,6.25
2019-01-11T21:45:20.682Z,6.31
2019-01-11T21:47:48.421Z,6.31
2019-01-11T21:50:20.868Z,6.33
2019-01-11T21:52:48.517Z,6.35
2019-01-11T21:55:16.162Z,6.33
2019-01-11T21:57:43.952Z,6.35
2019-01-11T22:00:18.678Z,6.32
2019-01-11T22:02:46.533Z,6.34
2019-01-11T22:05:14.148Z,6.34
2019-01-11T22:07:41.622Z,6.36
2019-01-11T22:10:10.405Z,6.34
2019-01-11T22:12:37.896Z,6.34
2019-01-11T22:15:06.483Z,6.36
2019-01-11T22:17:34.248Z,6.33
2019-01-11T22:20:01.679Z,6.35
2019-01-11T22:22:29.137Z,6.31
2019-01-11T22:24:56.553Z,6.31
2019-01-11T22:27:25.596Z,6.34
2019-01-11T22:29:53.298Z,6.34
2019-01-11T22:32:20.752Z,6.32
2019-01-11T22:34:48.173Z,6.32
2019-01-11T22:37:15.643Z,6.34
2019-01-11T22:39:43.052Z,6.30
2019-01-11T22:42:10.868Z,6.30
2019-01-11T22:44:38.282Z,6.33
2019-01-11T22:47:05.713Z,6.36
2019-01-11T22:49:33.148Z,6.33
2019-01-11T22:52:00.608Z,6.35
2019-01-11T22:54:27.998Z,6.33
2019-01-11T22:56:55.503Z,6.34
2019-01-11T22:59:22.893Z,6.34
2019-01-11T23:02:01.708Z,6.34
2019-01-11T23:04:29.142Z,6.32
2019-01-11T23:07:07.218Z,6.33
2019-01-11T23:09:39.989Z,6.36
2019-01-11T23:12:17.466Z,6.40
2019-01-11T23:14:44.873Z,6.37
2019-01-11T23:17:23.387Z,6.39
2019-01-11T23:19:50.858Z,6.41
2019-01-11T23:22:18.297Z,6.39
2019-01-11T23:24:45.698Z,6.32
2019-01-11T23:27:13.178Z,6.25
2019-01-11T23:29:40.578Z,6.20
2019-01-11T23:32:08.058Z,6.21
2019-01-11T23:34:35.507Z,6.18
2019-01-11T23:37:03.017Z,6.20
2019-01-11T23:39:30.408Z,6.23
2019-01-11T23:41:57.856Z,6.23
2019-01-11T23:44:25.257Z,6.20
2019-01-11T23:46:52.677Z,6.17
2019-01-11T23:49:20.140Z,6.17
2019-01-11T23:51:47.522Z,6.19
2019-01-11T23:54:14.998Z,6.20
2019-01-11T23:56:42.532Z,6.20
2019-01-11T23:59:10.043Z,6.22
